Terminal Aerodrome Forecast
Issued by NWS

Home | Current Version | Previous Version | Text Only | Print | Product List | Glossary On
Versions: 1 2 3 4 5 6 7 8 9 10 11 12 13 14 15 16 17 18 19 20
708
FTUS46 KSTO 221700 RRA
TAFMHR
TAF
KMHR 221743Z 2218/2318 16005KT P6SM BKN016 BKN100
     FM221830 19006KT P6SM SCT015 SCT070 BKN120
     FM222300 22012G18KT P6SM BKN050 BKN120
     FM230300 19006KT P6SM BKN050 BKN100=

USA.gov is the U.S. government's official web portal to all federal, state and local government web resources and services.